createdAt,value
2023-03-03T00:02:22.651Z,14.77
2023-03-03T00:04:52.767Z,9.32
2023-03-03T00:09:51.159Z,6.75
2023-03-03T00:12:30.536Z,14.18
2023-03-03T00:14:58.310Z,9.10
2023-03-03T00:17:32.019Z,10.75
2023-03-03T00:20:00.103Z,6.57
2023-03-03T00:22:32.085Z,10.18
2023-03-03T00:25:20.898Z,10.38
2023-03-03T00:27:48.528Z,6.75
2023-03-03T00:30:27.834Z,3.67
2023-03-03T00:32:56.085Z,8.20
2023-03-03T00:35:25.714Z,4.07
2023-03-03T00:37:58.316Z,5.25
2023-03-03T00:40:38.530Z,5.60
2023-03-03T00:43:23.094Z,4.25
2023-03-03T00:45:58.298Z,4.13
2023-03-03T00:48:52.713Z,9.27
2023-03-03T00:51:22.557Z,12.40
2023-03-03T00:53:50.297Z,9.18
2023-03-03T00:56:18.010Z,3.03
2023-03-03T00:58:47.700Z,6.45
2023-03-03T01:01:16.255Z,4.88
2023-03-03T01:03:44.136Z,12.02
2023-03-03T01:06:11.977Z,6.75
2023-03-03T01:08:39.980Z,8.30
2023-03-03T01:11:10.684Z,11.23
2023-03-03T01:13:38.694Z,14.50
2023-03-03T01:16:06.515Z,6.45
2023-03-03T01:18:34.771Z,9.07
2023-03-03T01:21:05.668Z,3.47
2023-03-03T01:23:33.245Z,4.55
2023-03-03T01:26:00.937Z,8.68
2023-03-03T01:28:28.508Z,3.90
2023-03-03T01:30:56.172Z,4.80
2023-03-03T01:33:23.663Z,1.23
2023-03-03T01:35:51.242Z,4.80
2023-03-03T01:38:18.993Z,5.57
2023-03-03T01:40:56.317Z,1.83
2023-03-03T01:43:24.161Z,2.00
2023-03-03T01:45:52.095Z,3.50
2023-03-03T01:48:22.696Z,5.47
2023-03-03T01:50:53.004Z,4.80
2023-03-03T01:53:26.928Z,3.25
2023-03-03T01:55:54.698Z,4.32
2023-03-03T01:58:32.954Z,3.08
2023-03-03T02:01:03.056Z,2.60
2023-03-03T02:06:05.148Z,3.38
2023-03-03T02:08:41.422Z,3.78
2023-03-03T02:13:38.234Z,3.85
2023-03-03T02:16:06.073Z,3.85
2023-03-03T02:18:33.809Z,3.25
2023-03-03T02:21:11.035Z,10.40
2023-03-03T02:24:02.328Z,3.70
2023-03-03T02:26:31.045Z,9.15
2023-03-03T02:28:58.604Z,3.47
2023-03-03T02:31:28.098Z,4.38
2023-03-03T02:33:56.585Z,3.47
2023-03-03T02:36:25.573Z,9.90
2023-03-03T02:39:22.321Z,3.75
2023-03-03T02:41:52.047Z,3.47
2023-03-03T02:44:31.337Z,4.45
2023-03-03T02:46:59.212Z,3.88
2023-03-03T02:49:32.434Z,3.63
2023-03-03T02:52:00.649Z,3.08
2023-03-03T02:54:30.321Z,3.05
2023-03-03T02:56:58.331Z,4.80
2023-03-03T02:59:25.865Z,5.78
2023-03-03T03:01:53.508Z,15.02
2023-03-03T03:04:22.611Z,5.22
2023-03-03T03:06:50.487Z,6.05
2023-03-03T03:09:19.361Z,7.47
2023-03-03T03:11:47.053Z,3.92
2023-03-03T03:14:15.082Z,5.07
2023-03-03T03:16:43.038Z,8.18
2023-03-03T03:19:10.627Z,3.88
2023-03-03T03:21:38.805Z,4.40
2023-03-03T03:24:06.566Z,3.45
2023-03-03T03:26:34.380Z,6.57
2023-03-03T03:29:02.089Z,4.45
2023-03-03T03:31:29.313Z,6.78
2023-03-03T03:33:57.033Z,8.48
2023-03-03T03:36:24.698Z,2.63
2023-03-03T03:38:52.543Z,6.13
2023-03-03T03:41:20.181Z,4.25
2023-03-03T03:43:47.518Z,4.03
2023-03-03T03:46:17.578Z,4.30
2023-03-03T03:51:13.635Z,4.45
2023-03-03T03:53:41.316Z,6.97
2023-03-03T03:56:09.141Z,8.02
2023-03-03T03:58:37.103Z,4.85
2023-03-03T04:01:09.134Z,7.97
2023-03-03T04:03:36.841Z,2.92
2023-03-03T04:06:04.547Z,3.47
2023-03-03T04:08:31.992Z,6.22
2023-03-03T04:10:59.672Z,4.25
2023-03-03T04:13:29.044Z,4.03
2023-03-03T04:15:56.712Z,4.90
2023-03-03T04:18:24.434Z,1.77
2023-03-03T04:20:52.935Z,5.00
2023-03-03T04:23:20.587Z,7.45
2023-03-03T04:25:51.390Z,4.28
2023-03-03T04:28:18.972Z,6.72
2023-03-03T04:30:46.720Z,3.90
2023-03-03T04:33:14.579Z,3.90
2023-03-03T04:35:42.276Z,8.32
2023-03-03T04:38:09.936Z,7.22
2023-03-03T04:40:37.708Z,6.95
2023-03-03T04:43:05.277Z,10.82
2023-03-03T04:45:32.816Z,4.88
2023-03-03T04:48:00.370Z,8.00
2023-03-03T04:50:28.064Z,6.30
2023-03-03T04:52:55.887Z,4.00
2023-03-03T04:55:26.065Z,14.10
2023-03-03T04:57:56.015Z,6.88
2023-03-03T05:00:23.725Z,5.10
2023-03-03T05:02:51.418Z,7.63
2023-03-03T05:05:24.031Z,10.75
2023-03-03T05:07:51.608Z,19.90
2023-03-03T05:10:19.366Z,4.40
2023-03-03T05:12:46.900Z,8.50
2023-03-03T05:15:14.695Z,4.95
2023-03-03T05:17:44.916Z,6.85
2023-03-03T05:20:14.086Z,7.70
2023-03-03T05:22:41.874Z,12.85
2023-03-03T05:25:11.230Z,6.22
2023-03-03T05:27:41.347Z,10.23
2023-03-03T05:32:36.490Z,4.00
2023-03-03T05:35:04.433Z,6.40
2023-03-03T05:37:32.221Z,5.82
2023-03-03T05:40:00.393Z,9.05
2023-03-03T05:42:31.140Z,8.38
2023-03-03T05:44:58.886Z,15.25
2023-03-03T05:47:26.474Z,11.27
2023-03-03T05:49:54.290Z,1.83
2023-03-03T05:52:27.493Z,8.82
2023-03-03T05:54:55.541Z,4.88
2023-03-03T05:57:23.242Z,10.98
2023-03-03T05:59:51.633Z,7.93
2023-03-03T06:02:19.243Z,5.63
2023-03-03T06:04:46.577Z,6.70
2023-03-03T06:07:17.183Z,6.57
2023-03-03T06:09:45.759Z,16.10
2023-03-03T06:12:15.767Z,9.63
2023-03-03T06:14:43.314Z,11.38
2023-03-03T06:17:11.045Z,11.32
2023-03-03T06:19:42.132Z,5.15
2023-03-03T06:22:09.737Z,8.95
2023-03-03T06:24:37.369Z,19.17
2023-03-03T06:27:08.017Z,14.63
2023-03-03T06:29:35.729Z,10.85
2023-03-03T06:32:03.507Z,7.07
2023-03-03T06:34:33.589Z,12.65
2023-03-03T06:37:01.232Z,22.88
2023-03-03T06:39:28.963Z,15.43
2023-03-03T06:41:56.499Z,27.30
2023-03-03T06:44:28.635Z,6.45
2023-03-03T06:46:58.084Z,20.63
2023-03-03T06:49:25.786Z,21.08
2023-03-03T06:51:56.618Z,26.67
2023-03-03T06:54:30.741Z,23.80
2023-03-03T06:57:01.644Z,13.07
2023-03-03T06:59:29.570Z,32.58
2023-03-03T07:01:57.234Z,25.98
2023-03-03T07:04:33.864Z,25.10
2023-03-03T07:07:27.069Z,36.60
2023-03-03T07:09:55.996Z,27.20
2023-03-03T07:12:29.732Z,18.20
2023-03-03T07:15:13.604Z,23.23
2023-03-03T07:17:45.980Z,13.10
2023-03-03T07:20:21.207Z,17.35
2023-03-03T07:22:49.210Z,21.52
2023-03-03T07:25:35.511Z,27.52
2023-03-03T07:28:27.272Z,18.10
2023-03-03T07:30:56.653Z,24.40
2023-03-03T07:33:33.156Z,20.45
2023-03-03T07:36:01.807Z,27.45
2023-03-03T07:38:47.834Z,27.83
2023-03-03T07:41:23.648Z,28.27
2023-03-03T07:43:56.120Z,28.55
2023-03-03T07:46:44.740Z,23.48
2023-03-03T07:49:41.212Z,27.73
2023-03-03T07:52:39.844Z,24.02
2023-03-03T07:55:37.949Z,24.58
2023-03-03T07:58:34.882Z,20.08
2023-03-03T08:01:41.424Z,14.32
2023-03-03T08:04:23.501Z,14.00
2023-03-03T08:06:59.511Z,24.52
2023-03-03T08:09:32.782Z,16.17
2023-03-03T08:12:16.547Z,34.58
2023-03-03T08:14:44.371Z,10.88
2023-03-03T08:17:23.610Z,21.75
2023-03-03T08:19:52.353Z,19.42
2023-03-03T08:22:22.360Z,21.00
2023-03-03T08:24:50.057Z,13.13
2023-03-03T08:27:20.304Z,13.23
2023-03-03T08:29:48.576Z,18.52
2023-03-03T08:32:16.431Z,13.98
2023-03-03T08:34:44.173Z,35.97
2023-03-03T08:37:11.833Z,18.67
2023-03-03T08:39:42.153Z,18.45
2023-03-03T08:42:09.700Z,18.98
2023-03-03T08:44:37.726Z,15.43
2023-03-03T08:47:05.402Z,26.05
2023-03-03T08:49:33.624Z,20.38
2023-03-03T08:52:01.527Z,12.07
2023-03-03T08:54:29.129Z,10.38
2023-03-03T08:56:56.761Z,13.60
2023-03-03T08:59:24.409Z,18.95
2023-03-03T09:01:52.464Z,41.75
2023-03-03T09:04:20.486Z,22.60
2023-03-03T09:06:50.564Z,25.77
2023-03-03T09:09:18.335Z,24.08
2023-03-03T09:11:47.287Z,19.98
2023-03-03T09:14:17.609Z,36.50
2023-03-03T09:16:52.806Z,23.88
2023-03-03T09:19:39.285Z,27.45
2023-03-03T09:22:22.689Z,21.20
2023-03-03T09:24:54.935Z,21.10
2023-03-03T09:27:22.800Z,29.38
2023-03-03T09:29:50.561Z,35.40
2023-03-03T09:32:18.280Z,33.85
2023-03-03T09:34:45.832Z,24.25
2023-03-03T09:37:44.658Z,22.67
2023-03-03T09:40:53.625Z,26.58
2023-03-03T09:43:30.545Z,28.42
2023-03-03T09:46:04.084Z,19.13
2023-03-03T09:48:31.847Z,19.20
2023-03-03T09:50:59.746Z,21.08
2023-03-03T09:54:02.889Z,19.83
2023-03-03T09:56:34.395Z,28.65
2023-03-03T09:59:17.431Z,20.65
2023-03-03T10:01:59.665Z,28.52
2023-03-03T10:04:30.250Z,35.33
2023-03-03T10:07:21.002Z,19.55
2023-03-03T10:10:06.935Z,27.08
2023-03-03T10:12:40.683Z,26.83
2023-03-03T10:15:17.371Z,16.90
2023-03-03T10:17:53.358Z,24.95
2023-03-03T10:20:37.470Z,18.13
2023-03-03T10:23:45.285Z,31.17
2023-03-03T10:26:44.911Z,35.33
2023-03-03T10:29:26.498Z,19.38
2023-03-03T10:32:15.224Z,22.17
2023-03-03T10:34:51.724Z,19.60
2023-03-03T10:37:57.366Z,17.02
2023-03-03T10:40:34.155Z,19.25
2023-03-03T10:43:32.350Z,14.85
2023-03-03T10:46:00.217Z,21.88
2023-03-03T10:49:02.107Z,25.27
2023-03-03T10:51:52.534Z,10.15
2023-03-03T10:54:31.196Z,31.48
2023-03-03T10:57:19.553Z,23.45
2023-03-03T11:00:10.209Z,47.00
2023-03-03T11:02:40.106Z,37.30
2023-03-03T11:05:29.861Z,17.48
2023-03-03T11:08:02.418Z,16.90
2023-03-03T11:10:44.300Z,24.83
2023-03-03T11:13:20.858Z,20.20
2023-03-03T11:16:16.406Z,28.35
2023-03-03T11:19:02.388Z,20.48
2023-03-03T11:21:53.486Z,32.25
2023-03-03T11:24:28.167Z,23.08
2023-03-03T11:26:56.091Z,20.52
2023-03-03T11:29:35.578Z,26.02
2023-03-03T11:32:15.630Z,45.25
2023-03-03T11:34:57.582Z,30.33
2023-03-03T11:37:45.864Z,54.20
2023-03-03T11:40:27.432Z,51.20
2023-03-03T11:42:55.134Z,15.90
2023-03-03T11:45:27.804Z,15.18
2023-03-03T11:48:10.700Z,23.33
2023-03-03T11:51:02.657Z,19.25
2023-03-03T11:53:38.798Z,23.15
2023-03-03T11:56:34.745Z,15.35
2023-03-03T11:59:14.968Z,24.75
2023-03-03T12:01:51.654Z,23.42
2023-03-03T12:04:53.935Z,35.63
2023-03-03T12:07:27.848Z,24.05
2023-03-03T12:10:09.575Z,30.42
2023-03-03T12:13:00.173Z,33.42
2023-03-03T12:15:37.024Z,22.05
2023-03-03T12:18:36.121Z,21.50
2023-03-03T12:21:13.394Z,27.02
2023-03-03T12:23:43.821Z,20.30
2023-03-03T12:26:20.894Z,21.20
2023-03-03T12:29:15.178Z,14.80
2023-03-03T12:31:52.411Z,24.50
2023-03-03T12:34:38.534Z,20.35
2023-03-03T12:37:45.043Z,21.73
2023-03-03T12:40:37.004Z,16.23
2023-03-03T12:43:35.446Z,20.48
2023-03-03T12:46:40.397Z,16.00
2023-03-03T12:49:08.122Z,18.48
2023-03-03T12:52:01.281Z,21.83
2023-03-03T12:54:42.554Z,24.13
2023-03-03T12:57:28.490Z,13.50
2023-03-03T13:00:38.652Z,21.08
2023-03-03T13:03:09.705Z,12.73
2023-03-03T13:05:59.466Z,7.90
2023-03-03T13:08:38.232Z,19.75
2023-03-03T13:12:07.237Z,17.15
2023-03-03T13:14:40.324Z,19.83
2023-03-03T13:17:31.241Z,19.52
2023-03-03T13:20:12.264Z,20.35
2023-03-03T13:22:46.913Z,30.33
2023-03-03T13:25:29.920Z,15.52
2023-03-03T13:28:06.079Z,25.63
2023-03-03T13:30:36.866Z,25.92
2023-03-03T13:33:35.015Z,20.63
2023-03-03T13:36:10.249Z,15.55
2023-03-03T13:38:42.388Z,6.72
2023-03-03T13:41:19.255Z,31.75
2023-03-03T13:43:58.842Z,12.88
2023-03-03T13:46:41.120Z,12.27
2023-03-03T13:49:30.026Z,19.00
2023-03-03T13:52:11.412Z,18.13
2023-03-03T13:54:53.693Z,12.77
2023-03-03T13:57:58.507Z,14.90
2023-03-03T14:00:54.165Z,16.55
2023-03-03T14:03:49.722Z,13.85
2023-03-03T14:06:27.452Z,35.92
2023-03-03T14:09:15.422Z,14.40
2023-03-03T14:11:49.631Z,11.10
2023-03-03T14:14:17.450Z,21.85
2023-03-03T14:17:08.735Z,21.42
2023-03-03T14:19:40.554Z,12.20
2023-03-03T14:22:25.716Z,10.90
2023-03-03T14:25:15.753Z,14.82
2023-03-03T14:27:49.011Z,17.65
2023-03-03T14:30:25.711Z,7.85
2023-03-03T14:33:05.043Z,13.88
2023-03-03T14:35:39.878Z,17.20
2023-03-03T14:38:07.505Z,11.77
2023-03-03T14:40:37.780Z,28.42
2023-03-03T14:43:39.109Z,14.40
2023-03-03T14:46:30.573Z,18.92
2023-03-03T14:48:59.569Z,11.63
2023-03-03T14:51:50.098Z,16.50
2023-03-03T14:54:22.042Z,12.73
2023-03-03T14:57:02.602Z,8.00
2023-03-03T14:59:30.993Z,15.15
2023-03-03T15:02:18.953Z,10.25
2023-03-03T15:04:47.709Z,27.88
2023-03-03T15:07:37.527Z,15.00
2023-03-03T15:10:07.721Z,10.38
2023-03-03T15:12:41.129Z,19.15
2023-03-03T15:15:19.413Z,10.80
2023-03-03T15:18:06.834Z,15.15
2023-03-03T15:21:13.514Z,15.63
2023-03-03T15:23:44.025Z,5.50
2023-03-03T15:26:18.301Z,13.75
2023-03-03T15:29:02.726Z,27.90
2023-03-03T15:31:42.278Z,17.13
2023-03-03T15:34:21.988Z,24.90
2023-03-03T15:36:56.797Z,29.20
2023-03-03T15:39:33.088Z,43.65
2023-03-03T15:42:04.198Z,15.73
2023-03-03T15:44:58.968Z,22.45
2023-03-03T15:50:12.382Z,21.77
2023-03-03T15:52:48.286Z,18.38
2023-03-03T15:55:27.680Z,13.25
2023-03-03T15:58:05.308Z,4.70
2023-03-03T16:00:36.816Z,13.77
2023-03-03T16:03:13.536Z,10.75
2023-03-03T16:05:57.338Z,16.63
2023-03-03T16:08:29.250Z,22.25
2023-03-03T16:11:05.653Z,44.00
2023-03-03T16:13:45.515Z,51.15
2023-03-03T16:16:12.968Z,57.08
2023-03-03T16:18:41.238Z,18.48
2023-03-03T16:21:21.402Z,13.85
2023-03-03T16:23:51.142Z,13.68
2023-03-03T16:26:31.119Z,12.77
2023-03-03T16:29:12.722Z,28.00
2023-03-03T16:32:00.809Z,37.60
2023-03-03T16:34:47.612Z,28.38
2023-03-03T16:37:28.662Z,30.77
2023-03-03T16:40:00.854Z,27.75
2023-03-03T16:42:32.944Z,38.20
2023-03-03T16:45:21.161Z,22.63
2023-03-03T16:47:48.842Z,21.85
2023-03-03T16:50:22.609Z,21.75
2023-03-03T16:52:53.254Z,38.22
2023-03-03T16:55:29.451Z,30.90
2023-03-03T17:00:31.850Z,24.35
2023-03-03T17:03:17.084Z,21.25
2023-03-03T17:05:44.732Z,34.50
2023-03-03T17:08:16.976Z,28.25
2023-03-03T17:11:16.456Z,30.80
2023-03-03T17:13:43.731Z,26.20
2023-03-03T17:16:42.677Z,29.58
2023-03-03T17:19:26.480Z,18.00
2023-03-03T17:22:04.627Z,22.45
2023-03-03T17:24:38.195Z,24.58
2023-03-03T17:27:31.890Z,21.38
2023-03-03T17:30:52.032Z,20.08
2023-03-03T17:33:34.404Z,17.05
2023-03-03T17:36:11.230Z,21.55
2023-03-03T17:39:08.323Z,15.57
2023-03-03T17:42:13.913Z,19.98
2023-03-03T17:44:57.709Z,20.35
2023-03-03T17:47:27.602Z,21.08
2023-03-03T17:50:06.509Z,28.95
2023-03-03T17:52:46.669Z,17.95
2023-03-03T17:55:31.906Z,18.08
2023-03-03T17:58:17.526Z,22.60
2023-03-03T18:01:18.154Z,30.23
2023-03-03T18:04:13.074Z,26.08
2023-03-03T18:07:02.734Z,22.80
2023-03-03T18:09:35.635Z,30.52
2023-03-03T18:12:38.600Z,29.70
2023-03-03T18:15:38.349Z,28.60
2023-03-03T18:18:06.577Z,15.18
2023-03-03T18:20:43.217Z,28.90
2023-03-03T18:23:41.910Z,25.05
2023-03-03T18:26:43.975Z,19.70
2023-03-03T18:29:17.798Z,20.45
2023-03-03T18:32:00.594Z,31.75
2023-03-03T18:34:36.103Z,19.10
2023-03-03T18:37:37.167Z,20.98
2023-03-03T18:42:43.804Z,14.32
2023-03-03T18:45:19.906Z,16.27
2023-03-03T18:48:02.452Z,13.30
2023-03-03T18:50:38.043Z,10.20
2023-03-03T18:53:24.510Z,9.48
2023-03-03T18:55:56.934Z,10.73
2023-03-03T18:58:28.545Z,19.10
2023-03-03T19:01:42.512Z,11.70
2023-03-03T19:04:19.612Z,10.00
2023-03-03T19:06:52.492Z,20.90
2023-03-03T19:09:21.719Z,7.70
2023-03-03T19:11:56.012Z,19.95
2023-03-03T19:14:29.804Z,9.85
2023-03-03T19:17:17.107Z,15.48
2023-03-03T19:20:15.505Z,8.63
2023-03-03T19:22:48.912Z,8.13
2023-03-03T19:25:18.201Z,14.90
2023-03-03T19:28:07.635Z,12.98
2023-03-03T19:31:01.667Z,14.32
2023-03-03T19:33:44.014Z,13.38
2023-03-03T19:36:28.115Z,14.93
2023-03-03T19:39:14.176Z,19.90
2023-03-03T19:42:07.117Z,9.57
2023-03-03T19:45:11.827Z,6.50
2023-03-03T19:48:17.278Z,9.73
2023-03-03T19:50:49.243Z,10.38
2023-03-03T19:53:21.223Z,7.55
2023-03-03T19:56:01.249Z,9.43
2023-03-03T19:58:51.490Z,12.10
2023-03-03T20:01:30.174Z,11.82
2023-03-03T20:04:29.732Z,12.68
2023-03-03T20:07:03.603Z,6.50
2023-03-03T20:09:46.114Z,17.98
2023-03-03T20:14:49.181Z,6.78
2023-03-03T20:17:55.252Z,17.27
2023-03-03T20:20:44.343Z,11.05
2023-03-03T20:23:29.987Z,13.43
2023-03-03T20:26:06.530Z,14.48
2023-03-03T20:29:16.002Z,10.40
2023-03-03T20:31:45.814Z,20.63
2023-03-03T20:34:50.674Z,14.30
2023-03-03T20:37:57.437Z,5.88
2023-03-03T20:40:47.431Z,8.52
2023-03-03T20:43:37.934Z,9.02
2023-03-03T20:46:15.036Z,8.38
2023-03-03T20:48:48.254Z,5.85
2023-03-03T20:51:15.828Z,7.47
2023-03-03T20:54:13.282Z,3.67
2023-03-03T20:56:49.498Z,12.80
2023-03-03T20:59:27.970Z,4.93
2023-03-03T21:01:58.559Z,8.10
2023-03-03T21:04:29.060Z,5.00
2023-03-03T21:06:56.808Z,3.97
2023-03-03T21:09:25.502Z,11.68
2023-03-03T21:11:53.189Z,8.75
2023-03-03T21:14:36.574Z,5.78
2023-03-03T21:17:26.291Z,3.63
2023-03-03T21:19:54.355Z,7.43
2023-03-03T21:22:22.014Z,9.25
2023-03-03T21:24:52.322Z,8.40
2023-03-03T21:27:34.128Z,3.80
2023-03-03T21:30:17.981Z,5.03
2023-03-03T21:32:51.903Z,6.53
2023-03-03T21:35:22.221Z,8.15
2023-03-03T21:37:50.855Z,8.25
2023-03-03T21:40:27.561Z,8.18
2023-03-03T21:42:57.835Z,7.53
2023-03-03T21:45:27.678Z,6.32
2023-03-03T21:47:56.795Z,11.85
2023-03-03T21:50:24.716Z,7.53
2023-03-03T21:52:52.332Z,7.53
2023-03-03T21:55:19.959Z,5.38
2023-03-03T21:57:49.577Z,8.32
2023-03-03T22:00:17.468Z,9.07
2023-03-03T22:02:44.971Z,9.95
2023-03-03T22:05:12.472Z,7.35
2023-03-03T22:07:40.020Z,5.05
2023-03-03T22:10:10.102Z,14.02
2023-03-03T22:15:05.069Z,12.70
2023-03-03T22:17:32.355Z,8.48
2023-03-03T22:20:00.502Z,9.80
2023-03-03T22:22:28.086Z,7.25
2023-03-03T22:24:55.553Z,9.38
2023-03-03T22:27:23.591Z,6.13
2023-03-03T22:29:50.881Z,14.25
2023-03-03T22:32:18.521Z,8.35
2023-03-03T22:34:46.244Z,7.82
2023-03-03T22:37:13.749Z,7.40
2023-03-03T22:39:41.112Z,10.20
2023-03-03T22:42:11.194Z,4.57
2023-03-03T22:47:06.087Z,7.45
2023-03-03T22:49:33.726Z,6.13
2023-03-03T22:52:02.709Z,4.38
2023-03-03T22:54:30.434Z,5.05
2023-03-03T22:56:58.076Z,8.68
2023-03-03T22:59:25.736Z,6.93
2023-03-03T23:01:53.061Z,3.33
2023-03-03T23:04:20.667Z,9.95
2023-03-03T23:06:49.789Z,6.97
2023-03-03T23:09:16.955Z,8.45
2023-03-03T23:11:44.598Z,9.25
2023-03-03T23:14:12.030Z,9.20
2023-03-03T23:16:39.748Z,8.15
2023-03-03T23:19:08.011Z,6.93
2023-03-03T23:21:35.625Z,7.60
2023-03-03T23:24:03.055Z,6.07
2023-03-03T23:26:30.450Z,7.88
2023-03-03T23:28:57.810Z,8.65
2023-03-03T23:31:26.347Z,8.65
2023-03-03T23:33:53.654Z,5.63
2023-03-03T23:36:21.486Z,7.80
2023-03-03T23:38:48.807Z,6.72
2023-03-03T23:41:18.872Z,9.77
2023-03-03T23:43:46.323Z,7.45
2023-03-03T23:46:16.270Z,6.38
2023-03-03T23:48:43.782Z,11.98
2023-03-03T23:51:11.322Z,9.68
2023-03-03T23:53:38.654Z,7.85
2023-03-03T23:56:06.986Z,9.15
2023-03-03T23:58:34.641Z,9.90
